Paradise, Michigan
Current Conditions -  °F | °C
As of 12:00 PM on Sunday 21 Dec 2014 (Local Time) from CYAM Reporting Station
Overcast Overcast  
Wind Chill: 21°   Ceiling: 2800
Heat Index: 28°   Visibility: 15mi
Dew Point: 23°   Wind: 7mph
Humidity: 80%   Direction: 120°ESE
Pressure: 30.21"   Gusts: NA
Location:  46.63°N, 85.04°W
Report Text: CYAM 211700Z 12006KT 15SM OVC028 M02/M05 A3021 RMK SC8 SLP240
Loading
Personal Weather Stations






























Interactive Weather Map New forecast layout! Learn more

10-Day Weather Forecast

Advertisements
Track Severe Weather on mobile